ESJ321 EVRA-EETN
Flight info
| Callsign | ESJ321 |
|---|---|
| Flight time | 0h 32m |
| Altitude | 20000 |
| Route | SOKVA2F SOKVA DCT ANAMA DCT KEMET KEMET1L |
| Aircraft | A330/M-V/N |
Departure
| Time | 2026-05-04 13:50 |
|---|---|
| Airport | Riga International Airport (EVRA) |
Arrival
| Time | 2026-05-04 14:23 |
|---|---|
| Airport | Lennart Meri Tallinn Airport (EETN) |
| Time | Latitude | Longitude | Altitude | Speed | Heading |
|---|---|---|---|---|---|
| 2026-05-04 13:37 | 56.91918 | 23.97533 | 41 ft | 0 kts | 91° |
| 2026-05-04 13:43 | 56.91918 | 23.97534 | 41 ft | 1 kts | 91° |
| 2026-05-04 13:43 | 56.91913 | 23.97545 | 41 ft | 0 kts | 134° |
| 2026-05-04 13:43 | 56.91907 | 23.97546 | 38 ft | 1 kts | 167° |
| 2026-05-04 13:43 | 56.91887 | 23.97533 | 41 ft | 6 kts | 199° |
| 2026-05-04 13:44 | 56.91823 | 23.97486 | 41 ft | 14 kts | 201° |
| 2026-05-04 13:44 | 56.91723 | 23.97421 | 41 ft | 16 kts | 196° |
| 2026-05-04 13:44 | 56.91605 | 23.97386 | 41 ft | 19 kts | 186° |
| 2026-05-04 13:44 | 56.91465 | 23.97361 | 41 ft | 22 kts | 185° |
| 2026-05-04 13:45 | 56.91308 | 23.97335 | 41 ft | 23 kts | 185° |
| 2026-05-04 13:45 | 56.91145 | 23.97306 | 42 ft | 24 kts | 186° |
| 2026-05-04 13:45 | 56.90994 | 23.97258 | 42 ft | 20 kts | 195° |
| 2026-05-04 13:45 | 56.90874 | 23.97200 | 42 ft | 16 kts | 194° |
| 2026-05-04 13:46 | 56.90779 | 23.97160 | 42 ft | 12 kts | 192° |
| 2026-05-04 13:46 | 56.90706 | 23.97128 | 42 ft | 9 kts | 201° |
| 2026-05-04 13:46 | 56.90671 | 23.97081 | 41 ft | 5 kts | 227° |
| 2026-05-04 13:46 | 56.90662 | 23.97055 | 41 ft | 0 kts | 241° |
| 2026-05-04 13:47 | 56.90659 | 23.97038 | 42 ft | 4 kts | 248° |
| 2026-05-04 13:47 | 56.90655 | 23.96967 | 42 ft | 7 kts | 270° |
| 2026-05-04 13:47 | 56.90656 | 23.96927 | 42 ft | 1 kts | 274° |
| 2026-05-04 13:47 | 56.90657 | 23.96909 | 41 ft | 3 kts | 276° |
| 2026-05-04 13:48 | 56.90659 | 23.96900 | 41 ft | 0 kts | 283° |
| 2026-05-04 13:48 | 56.90665 | 23.96886 | 41 ft | 5 kts | 307° |
| 2026-05-04 13:49 | 56.90696 | 23.96856 | 41 ft | 5 kts | 338° |
| 2026-05-04 13:49 | 56.90791 | 23.96836 | 40 ft | 22 kts | 7° |
| 2026-05-04 13:49 | 56.91047 | 23.96892 | 41 ft | 61 kts | 5° |
| 2026-05-04 13:49 | 56.91641 | 23.96988 | 41 ft | 110 kts | 5° |
| 2026-05-04 13:50 | 56.92556 | 23.97137 | 40 ft | 153 kts | 5° |
| 2026-05-04 13:50 | 56.93737 | 23.97325 | 176 ft | 180 kts | 2° |
| 2026-05-04 13:50 | 56.95013 | 23.97608 | 645 ft | 190 kts | 4° |
| 2026-05-04 13:50 | 56.96386 | 23.97898 | 1061 ft | 209 kts | 0° |
| 2026-05-04 13:51 | 56.97896 | 23.98157 | 1529 ft | 226 kts | 359° |
| 2026-05-04 13:51 | 56.99535 | 23.98417 | 2033 ft | 245 kts | 0° |
| 2026-05-04 13:51 | 57.01289 | 23.98819 | 2584 ft | 263 kts | 1° |
| 2026-05-04 13:51 | 57.03141 | 23.99436 | 3128 ft | 278 kts | 5° |
| 2026-05-04 13:52 | 57.07049 | 24.01490 | 4331 ft | 303 kts | 10° |
| 2026-05-04 13:52 | 57.09081 | 24.02673 | 4965 ft | 311 kts | 11° |
| 2026-05-04 13:52 | 57.11162 | 24.03954 | 5615 ft | 318 kts | 13° |
| 2026-05-04 13:53 | 57.13236 | 24.05315 | 6269 ft | 324 kts | 14° |
| 2026-05-04 13:53 | 57.15384 | 24.06700 | 6910 ft | 328 kts | 12° |
| 2026-05-04 13:53 | 57.17578 | 24.07962 | 7545 ft | 332 kts | 10° |
| 2026-05-04 13:54 | 57.22177 | 24.10157 | 8495 ft | 351 kts | 7° |
| 2026-05-04 13:54 | 57.24589 | 24.11067 | 9041 ft | 357 kts | 5° |
| 2026-05-04 13:54 | 57.29605 | 24.12457 | 10104 ft | 371 kts | 2° |
| 2026-05-04 13:55 | 57.32190 | 24.13095 | 10610 ft | 378 kts | 2° |
| 2026-05-04 13:55 | 57.37485 | 24.14390 | 11658 ft | 390 kts | 2° |
| 2026-05-04 13:55 | 57.40192 | 24.15044 | 12181 ft | 395 kts | 2° |
| 2026-05-04 13:56 | 57.42933 | 24.15703 | 12726 ft | 400 kts | 2° |
| 2026-05-04 13:56 | 57.44764 | 24.16141 | 13086 ft | 403 kts | 2° |
| 2026-05-04 13:56 | 57.50375 | 24.17478 | 14183 ft | 409 kts | 2° |
| 2026-05-04 13:57 | 57.53207 | 24.18149 | 14743 ft | 412 kts | 2° |
| 2026-05-04 13:57 | 57.56990 | 24.19046 | 15529 ft | 414 kts | 1° |
| 2026-05-04 13:58 | 57.64660 | 24.20867 | 16999 ft | 418 kts | 1° |
| 2026-05-04 13:58 | 57.70587 | 24.22246 | 17380 ft | 436 kts | 1° |
| 2026-05-04 13:58 | 57.73607 | 24.22940 | 17830 ft | 439 kts | 1° |
| 2026-05-04 13:59 | 57.76648 | 24.23639 | 18251 ft | 440 kts | 1° |
| 2026-05-04 13:59 | 57.79677 | 24.24338 | 18642 ft | 437 kts | 1° |
| 2026-05-04 13:59 | 57.85724 | 24.25830 | 19131 ft | 443 kts | 3° |
| 2026-05-04 14:00 | 57.88791 | 24.26703 | 19189 ft | 449 kts | 3° |
| 2026-05-04 14:00 | 57.94938 | 24.28463 | 19207 ft | 445 kts | 3° |
| 2026-05-04 14:00 | 57.97986 | 24.29350 | 19246 ft | 439 kts | 3° |
| 2026-05-04 14:01 | 58.00988 | 24.30236 | 19279 ft | 434 kts | 3° |
| 2026-05-04 14:01 | 58.03947 | 24.31121 | 19305 ft | 429 kts | 3° |
| 2026-05-04 14:01 | 58.09768 | 24.32893 | 19334 ft | 419 kts | 3° |
| 2026-05-04 14:02 | 58.12634 | 24.33780 | 19375 ft | 415 kts | 3° |
| 2026-05-04 14:02 | 58.15474 | 24.34670 | 19383 ft | 412 kts | 3° |
| 2026-05-04 14:02 | 58.18301 | 24.35562 | 19341 ft | 411 kts | 3° |
| 2026-05-04 14:02 | 58.21125 | 24.36459 | 19287 ft | 410 kts | 3° |
| 2026-05-04 14:03 | 58.23940 | 24.37358 | 19221 ft | 410 kts | 3° |
| 2026-05-04 14:03 | 58.26754 | 24.38263 | 19180 ft | 409 kts | 3° |
| 2026-05-04 14:03 | 58.29575 | 24.39171 | 18951 ft | 414 kts | 4° |
| 2026-05-04 14:03 | 58.32393 | 24.40075 | 18707 ft | 419 kts | 4° |
| 2026-05-04 14:04 | 58.38212 | 24.42071 | 18212 ft | 432 kts | 8° |
| 2026-05-04 14:04 | 58.41133 | 24.43646 | 17993 ft | 440 kts | 13° |
| 2026-05-04 14:04 | 58.44013 | 24.45758 | 17713 ft | 447 kts | 19° |
| 2026-05-04 14:05 | 58.49724 | 24.50721 | 17141 ft | 455 kts | 21° |
| 2026-05-04 14:05 | 58.52593 | 24.53355 | 16847 ft | 460 kts | 22° |
| 2026-05-04 14:05 | 58.55473 | 24.56095 | 16542 ft | 464 kts | 23° |
| 2026-05-04 14:06 | 58.58353 | 24.58936 | 16352 ft | 464 kts | 24° |
| 2026-05-04 14:06 | 58.61193 | 24.61849 | 16382 ft | 459 kts | 25° |
| 2026-05-04 14:06 | 58.63976 | 24.64819 | 16443 ft | 454 kts | 26° |
| 2026-05-04 14:06 | 58.66696 | 24.67839 | 16536 ft | 450 kts | 27° |
| 2026-05-04 14:07 | 58.69360 | 24.70920 | 16581 ft | 445 kts | 28° |
| 2026-05-04 14:07 | 58.71945 | 24.74036 | 16632 ft | 442 kts | 29° |
| 2026-05-04 14:07 | 58.74507 | 24.77257 | 16678 ft | 438 kts | 30° |
| 2026-05-04 14:07 | 58.77053 | 24.80437 | 16715 ft | 434 kts | 27° |
| 2026-05-04 14:08 | 58.79648 | 24.83355 | 16726 ft | 430 kts | 24° |
| 2026-05-04 14:08 | 58.82281 | 24.86071 | 16680 ft | 429 kts | 24° |
| 2026-05-04 14:08 | 58.84912 | 24.88829 | 16483 ft | 432 kts | 24° |
| 2026-05-04 14:08 | 58.87597 | 24.91488 | 16276 ft | 433 kts | 20° |
| 2026-05-04 14:09 | 58.93287 | 24.95200 | 15913 ft | 431 kts | 8° |
| 2026-05-04 14:09 | 58.96213 | 24.96552 | 15781 ft | 432 kts | 7° |
| 2026-05-04 14:10 | 59.02052 | 24.99230 | 15484 ft | 436 kts | 10° |
| 2026-05-04 14:10 | 59.04975 | 25.00822 | 15328 ft | 436 kts | 10° |
| 2026-05-04 14:10 | 59.07917 | 25.02334 | 14894 ft | 437 kts | 9° |
| 2026-05-04 14:10 | 59.10848 | 25.03727 | 14700 ft | 428 kts | 7° |
| 2026-05-04 14:11 | 59.13718 | 25.05020 | 14475 ft | 420 kts | 7° |
| 2026-05-04 14:11 | 59.19312 | 25.07758 | 13932 ft | 409 kts | 12° |
| 2026-05-04 14:11 | 59.22013 | 25.09543 | 13550 ft | 409 kts | 14° |
| 2026-05-04 14:12 | 59.24658 | 25.11525 | 13241 ft | 406 kts | 19° |
| 2026-05-04 14:12 | 59.27170 | 25.14034 | 12628 ft | 410 kts | 26° |
| 2026-05-04 14:12 | 59.32245 | 25.20207 | 10585 ft | 439 kts | 28° |
| 2026-05-04 14:13 | 59.34803 | 25.23325 | 10088 ft | 437 kts | 28° |
| 2026-05-04 14:13 | 59.37371 | 25.26438 | 9641 ft | 429 kts | 27° |
| 2026-05-04 14:13 | 59.38350 | 25.27622 | 9466 ft | 422 kts | 27° |
| 2026-05-04 14:17 | 59.40240 | 25.29905 | 9144 ft | 408 kts | 27° |
| 2026-05-04 14:17 | 59.45010 | 25.34716 | 8375 ft | 362 kts | 1° |
| 2026-05-04 14:18 | 59.47350 | 25.34064 | 7691 ft | 330 kts | 325° |
| 2026-05-04 14:18 | 59.48380 | 25.26879 | 5153 ft | 313 kts | 231° |
| 2026-05-04 14:19 | 59.44354 | 25.23124 | 3420 ft | 317 kts | 201° |
| 2026-05-04 14:19 | 59.42639 | 25.21058 | 3542 ft | 276 kts | 232° |
| 2026-05-04 14:19 | 59.41869 | 25.17647 | 2663 ft | 279 kts | 258° |
| 2026-05-04 14:19 | 59.41573 | 25.14026 | 2593 ft | 257 kts | 264° |
| 2026-05-04 14:20 | 59.41447 | 25.10667 | 2581 ft | 237 kts | 266° |
| 2026-05-04 14:20 | 59.41415 | 25.07558 | 2455 ft | 221 kts | 270° |
| 2026-05-04 14:20 | 59.41455 | 25.04633 | 2164 ft | 208 kts | 270° |
| 2026-05-04 14:21 | 59.41470 | 24.99359 | 1699 ft | 175 kts | 264° |
| 2026-05-04 14:21 | 59.41348 | 24.97105 | 1643 ft | 158 kts | 264° |
| 2026-05-04 14:21 | 59.41311 | 24.94974 | 1370 ft | 157 kts | 271° |
| 2026-05-04 14:21 | 59.41328 | 24.92796 | 989 ft | 158 kts | 271° |
| 2026-05-04 14:22 | 59.41332 | 24.91899 | 954 ft | 153 kts | 270° |
| 2026-05-04 14:22 | 59.41333 | 24.90550 | 755 ft | 153 kts | 269° |
| 2026-05-04 14:22 | 59.41313 | 24.88284 | 483 ft | 182 kts | 270° |
| 2026-05-04 14:22 | 59.41319 | 24.85805 | 209 ft | 174 kts | 272° |
| 2026-05-04 14:23 | 59.41346 | 24.82854 | 142 ft | 41 kts | 278° |
| 2026-05-04 14:23 | 59.41421 | 24.82462 | 143 ft | 24 kts | 301° |
| 2026-05-04 14:23 | 59.41482 | 24.82214 | 143 ft | 18 kts | 290° |
| 2026-05-04 14:24 | 59.41499 | 24.81992 | 143 ft | 15 kts | 271° |
| 2026-05-04 14:24 | 59.41502 | 24.81800 | 142 ft | 14 kts | 271° |
| 2026-05-04 14:24 | 59.41503 | 24.81586 | 142 ft | 18 kts | 271° |
| 2026-05-04 14:24 | 59.41503 | 24.81318 | 142 ft | 21 kts | 269° |
| 2026-05-04 14:25 | 59.41564 | 24.81154 | 142 ft | 14 kts | 331° |
| 2026-05-04 14:25 | 59.41665 | 24.80764 | 142 ft | 20 kts | 274° |
| 2026-05-04 14:25 | 59.41630 | 24.80532 | 142 ft | 12 kts | 212° |
| 2026-05-04 14:26 | 59.41572 | 24.80487 | 142 ft | 7 kts | 226° |
| 2026-05-04 14:26 | 59.41580 | 24.80417 | 142 ft | 3 kts | 308° |
| 2026-05-04 14:26 | 59.41585 | 24.80409 | 142 ft | 0 kts | 318° |